sensor_id;sensor_type;location;lat;lon;timestamp;temperature;humidity
6740;DHT22;3407;49.882;10.920;2023-02-28T00:00:36;-1.50;99.90
6740;DHT22;3407;49.882;10.920;2023-02-28T00:05:32;-1.50;1.00
6740;DHT22;3407;49.882;10.920;2023-02-28T00:10:29;-1.50;1.00
6740;DHT22;3407;49.882;10.920;2023-02-28T00:15:26;-1.60;99.90
6740;DHT22;3407;49.882;10.920;2023-02-28T00:20:22;-1.50;99.90
6740;DHT22;3407;49.882;10.920;2023-02-28T00:25:21;-2.10;99.90
6740;DHT22;3407;49.882;10.920;2023-02-28T00:30:21;-1.60;1.00
6740;DHT22;3407;49.882;10.920;2023-02-28T00:35:17;-1.60;99.90
6740;DHT22;3407;49.882;10.920;2023-02-28T00:40:13;-1.60;99.90
6740;DHT22;3407;49.882;10.920;2023-02-28T00:45:09;-1.60;56.60
6740;DHT22;3407;49.882;10.920;2023-02-28T00:50:05;-1.70;1.00
6740;DHT22;3407;49.882;10.920;2023-02-28T00:55:01;-1.70;1.00
6740;DHT22;3407;49.882;10.920;2023-02-28T00:59:56;-1.60;1.00
6740;DHT22;3407;49.882;10.920;2023-02-28T01:04:52;-1.70;1.00
6740;DHT22;3407;49.882;10.920;2023-02-28T01:09:47;-1.70;1.00
6740;DHT22;3407;49.882;10.920;2023-02-28T01:14:43;-1.70;99.90
6740;DHT22;3407;49.882;10.920;2023-02-28T01:19:39;-1.70;99.90
6740;DHT22;3407;49.882;10.920;2023-02-28T01:24:34;-1.70;99.90
6740;DHT22;3407;49.882;10.920;2023-02-28T01:29:29;-1.70;99.90
6740;DHT22;3407;49.882;10.920;2023-02-28T01:34:25;-1.80;99.90
6740;DHT22;3407;49.882;10.920;2023-02-28T01:39:20;-1.80;1.00
6740;DHT22;3407;49.882;10.920;2023-02-28T01:49:50;-1.90;1.00
6740;DHT22;3407;49.882;10.920;2023-02-28T01:54:54;-2.00;99.90
6740;DHT22;3407;49.882;10.920;2023-02-28T01:59:55;-2.10;1.00
6740;DHT22;3407;49.882;10.920;2023-02-28T02:04:59;-2.30;1.00
6740;DHT22;3407;49.882;10.920;2023-02-28T02:10:00;-2.10;1.00
6740;DHT22;3407;49.882;10.920;2023-02-28T02:21:07;-2.20;99.90
6740;DHT22;3407;49.882;10.920;2023-02-28T02:26:24;-2.20;1.00
6740;DHT22;3407;49.882;10.920;2023-02-28T02:31:52;-2.20;1.00
6740;DHT22;3407;49.882;10.920;2023-02-28T02:41:59;-2.20;1.00
6740;DHT22;3407;49.882;10.920;2023-02-28T02:47:07;-2.20;1.00
6740;DHT22;3407;49.882;10.920;2023-02-28T02:52:08;-2.20;1.00
6740;DHT22;3407;49.882;10.920;2023-02-28T02:57:11;-2.20;1.00
6740;DHT22;3407;49.882;10.920;2023-02-28T03:02:12;-2.20;13.20
6740;DHT22;3407;49.882;10.920;2023-02-28T03:07:09;-2.20;1.00
6740;DHT22;3407;49.882;10.920;2023-02-28T03:12:09;-2.10;1.00
6740;DHT22;3407;49.882;10.920;2023-02-28T03:17:21;-2.10;1.00
6740;DHT22;3407;49.882;10.920;2023-02-28T03:28:00;-2.20;1.00
6740;DHT22;3407;49.882;10.920;2023-02-28T03:38:00;-2.20;1.00
6740;DHT22;3407;49.882;10.920;2023-02-28T03:43:08;-2.10;1.00
6740;DHT22;3407;49.882;10.920;2023-02-28T03:48:13;-2.10;1.00
6740;DHT22;3407;49.882;10.920;2023-02-28T03:58:21;-2.00;1.00
6740;DHT22;3407;49.882;10.920;2023-02-28T04:03:20;-1.90;99.90
6740;DHT22;3407;49.882;10.920;2023-02-28T04:08:15;-1.90;99.90
6740;DHT22;3407;49.882;10.920;2023-02-28T04:13:11;-2.00;99.90
6740;DHT22;3407;49.882;10.920;2023-02-28T04:18:07;-2.00;99.90
6740;DHT22;3407;49.882;10.920;2023-02-28T04:23:02;-2.00;99.90
6740;DHT22;3407;49.882;10.920;2023-02-28T04:27:58;-2.00;99.90
6740;DHT22;3407;49.882;10.920;2023-02-28T04:32:53;-2.00;99.90
6740;DHT22;3407;49.882;10.920;2023-02-28T04:37:49;-2.10;99.90
6740;DHT22;3407;49.882;10.920;2023-02-28T04:42:44;-2.10;1.00
6740;DHT22;3407;49.882;10.920;2023-02-28T04:47:40;-2.20;1.00
6740;DHT22;3407;49.882;10.920;2023-02-28T04:52:35;-2.20;1.00
6740;DHT22;3407;49.882;10.920;2023-02-28T04:57:31;-2.30;85.30
6740;DHT22;3407;49.882;10.920;2023-02-28T05:02:26;-2.30;78.00
6740;DHT22;3407;49.882;10.920;2023-02-28T05:07:22;-2.30;43.70
6740;DHT22;3407;49.882;10.920;2023-02-28T05:12:17;-2.20;1.00
6740;DHT22;3407;49.882;10.920;2023-02-28T05:17:13;-2.20;1.00
6740;DHT22;3407;49.882;10.920;2023-02-28T05:22:14;-2.10;1.00
6740;DHT22;3407;49.882;10.920;2023-02-28T05:27:13;-2.10;99.90
6740;DHT22;3407;49.882;10.920;2023-02-28T05:32:12;-2.00;1.00
6740;DHT22;3407;49.882;10.920;2023-02-28T05:37:15;-2.00;1.00
6740;DHT22;3407;49.882;10.920;2023-02-28T05:42:10;-1.90;99.90
6740;DHT22;3407;49.882;10.920;2023-02-28T05:47:06;-1.90;1.00
6740;DHT22;3407;49.882;10.920;2023-02-28T05:52:01;-1.90;1.00
6740;DHT22;3407;49.882;10.920;2023-02-28T05:56:57;-1.80;99.90
6740;DHT22;3407;49.882;10.920;2023-02-28T06:01:52;-1.80;1.00
6740;DHT22;3407;49.882;10.920;2023-02-28T06:06:49;-1.80;1.00
6740;DHT22;3407;49.882;10.920;2023-02-28T06:11:45;-1.70;99.90
6740;DHT22;3407;49.882;10.920;2023-02-28T06:16:40;-1.60;99.90
6740;DHT22;3407;49.882;10.920;2023-02-28T06:21:36;-1.50;99.90
6740;DHT22;3407;49.882;10.920;2023-02-28T06:26:31;-1.40;1.00
6740;DHT22;3407;49.882;10.920;2023-02-28T06:31:27;-1.40;1.00
6740;DHT22;3407;49.882;10.920;2023-02-28T06:36:24;-1.20;1.00
6740;DHT22;3407;49.882;10.920;2023-02-28T06:41:20;-1.10;99.90
6740;DHT22;3407;49.882;10.920;2023-02-28T06:46:16;-1.00;8.80
6740;DHT22;3407;49.882;10.920;2023-02-28T06:51:14;-0.80;1.00
6740;DHT22;3407;49.882;10.920;2023-02-28T06:56:12;-0.70;52.20
6740;DHT22;3407;49.882;10.920;2023-02-28T07:01:08;-0.60;99.90
6740;DHT22;3407;49.882;10.920;2023-02-28T07:06:05;-0.50;99.90
6740;DHT22;3407;49.882;10.920;2023-02-28T07:11:00;-0.30;1.00
6740;DHT22;3407;49.882;10.920;2023-02-28T07:16:04;-0.20;99.90
6740;DHT22;3407;49.882;10.920;2023-02-28T07:21:04;0.00;95.40
6740;DHT22;3407;49.882;10.920;2023-02-28T07:26:00;0.20;1.00
6740;DHT22;3407;49.882;10.920;2023-02-28T07:30:56;0.40;1.00
6740;DHT22;3407;49.882;10.920;2023-02-28T07:35:51;0.70;99.90
6740;DHT22;3407;49.882;10.920;2023-02-28T07:40:47;2.00;51.20
6740;DHT22;3407;49.882;10.920;2023-02-28T07:45:42;3.70;99.90
6740;DHT22;3407;49.882;10.920;2023-02-28T07:50:38;4.90;99.90
6740;DHT22;3407;49.882;10.920;2023-02-28T07:55:33;6.20;99.90
6740;DHT22;3407;49.882;10.920;2023-02-28T08:00:29;7.00;99.90
6740;DHT22;3407;49.882;10.920;2023-02-28T08:05:27;8.30;99.90
6740;DHT22;3407;49.882;10.920;2023-02-28T08:10:22;9.50;99.90
6740;DHT22;3407;49.882;10.920;2023-02-28T08:15:19;10.00;99.90
6740;DHT22;3407;49.882;10.920;2023-02-28T08:20:14;10.70;99.90
6740;DHT22;3407;49.882;10.920;2023-02-28T08:25:10;9.90;99.90
6740;DHT22;3407;49.882;10.920;2023-02-28T08:30:06;9.70;99.90
6740;DHT22;3407;49.882;10.920;2023-02-28T08:35:03;10.10;99.90
6740;DHT22;3407;49.882;10.920;2023-02-28T08:39:59;9.10;99.90
6740;DHT22;3407;49.882;10.920;2023-02-28T08:44:54;8.20;99.90
6740;DHT22;3407;49.882;10.920;2023-02-28T08:49:50;8.00;99.90
6740;DHT22;3407;49.882;10.920;2023-02-28T08:54:45;8.50;99.90
6740;DHT22;3407;49.882;10.920;2023-02-28T08:59:41;7.60;99.90
6740;DHT22;3407;49.882;10.920;2023-02-28T09:04:36;6.90;99.90
6740;DHT22;3407;49.882;10.920;2023-02-28T09:09:32;6.60;99.90
6740;DHT22;3407;49.882;10.920;2023-02-28T09:14:28;5.50;99.90
6740;DHT22;3407;49.882;10.920;2023-02-28T09:19:23;4.40;99.90
6740;DHT22;3407;49.882;10.920;2023-02-28T09:24:19;3.80;99.90
6740;DHT22;3407;49.882;10.920;2023-02-28T09:29:15;3.40;99.90
6740;DHT22;3407;49.882;10.920;2023-02-28T09:34:12;3.80;99.90
6740;DHT22;3407;49.882;10.920;2023-02-28T09:39:08;3.90;99.90
6740;DHT22;3407;49.882;10.920;2023-02-28T09:44:05;3.60;99.90
6740;DHT22;3407;49.882;10.920;2023-02-28T09:49:10;3.90;99.90
6740;DHT22;3407;49.882;10.920;2023-02-28T09:54:14;3.80;99.90
6740;DHT22;3407;49.882;10.920;2023-02-28T10:04:51;4.00;99.90
6740;DHT22;3407;49.882;10.920;2023-02-28T10:09:53;3.80;99.90
6740;DHT22;3407;49.882;10.920;2023-02-28T10:14:52;3.80;99.90
6740;DHT22;3407;49.882;10.920;2023-02-28T10:24:48;3.90;99.90
6740;DHT22;3407;49.882;10.920;2023-02-28T10:29:48;3.70;99.90
6740;DHT22;3407;49.882;10.920;2023-02-28T10:34:45;4.00;99.90
6740;DHT22;3407;49.882;10.920;2023-02-28T10:39:44;4.30;99.90
6740;DHT22;3407;49.882;10.920;2023-02-28T10:44:41;4.10;99.90
6740;DHT22;3407;49.882;10.920;2023-02-28T10:49:36;4.20;99.90
6740;DHT22;3407;49.882;10.920;2023-02-28T10:54:36;4.40;99.90
6740;DHT22;3407;49.882;10.920;2023-02-28T10:59:33;4.60;99.90
6740;DHT22;3407;49.882;10.920;2023-02-28T11:09:38;5.30;99.90
6740;DHT22;3407;49.882;10.920;2023-02-28T11:14:47;6.00;99.90
6740;DHT22;3407;49.882;10.920;2023-02-28T11:19:46;6.00;99.90
6740;DHT22;3407;49.882;10.920;2023-02-28T11:24:45;6.90;99.90
6740;DHT22;3407;49.882;10.920;2023-02-28T11:29:47;6.30;99.90
6740;DHT22;3407;49.882;10.920;2023-02-28T11:34:43;6.10;99.90
6740;DHT22;3407;49.882;10.920;2023-02-28T11:39:39;7.20;99.90
6740;DHT22;3407;49.882;10.920;2023-02-28T11:44:55;7.40;99.90
6740;DHT22;3407;49.882;10.920;2023-02-28T11:50:14;7.40;99.90
6740;DHT22;3407;49.882;10.920;2023-02-28T11:55:21;8.70;99.90
6740;DHT22;3407;49.882;10.920;2023-02-28T12:06:15;8.90;99.90
6740;DHT22;3407;49.882;10.920;2023-02-28T12:26:44;8.60;99.90
6740;DHT22;3407;49.882;10.920;2023-02-28T12:31:46;7.80;99.90
6740;DHT22;3407;49.882;10.920;2023-02-28T12:36:46;8.60;99.90
6740;DHT22;3407;49.882;10.920;2023-02-28T12:41:48;9.70;99.90
6740;DHT22;3407;49.882;10.920;2023-02-28T12:46:48;9.50;99.90
6740;DHT22;3407;49.882;10.920;2023-02-28T12:51:45;9.10;99.90
6740;DHT22;3407;49.882;10.920;2023-02-28T13:02:06;10.00;99.90
6740;DHT22;3407;49.882;10.920;2023-02-28T13:12:27;9.30;99.90
6740;DHT22;3407;49.882;10.920;2023-02-28T13:17:24;10.00;99.90
6740;DHT22;3407;49.882;10.920;2023-02-28T13:22:43;10.50;99.90
6740;DHT22;3407;49.882;10.920;2023-02-28T13:27:40;9.80;99.90
6740;DHT22;3407;49.882;10.920;2023-02-28T13:32:37;9.60;99.90
6740;DHT22;3407;49.882;10.920;2023-02-28T13:37:42;10.10;99.90
6740;DHT22;3407;49.882;10.920;2023-02-28T13:42:47;9.80;99.90
6740;DHT22;3407;49.882;10.920;2023-02-28T13:47:54;10.30;99.90
6740;DHT22;3407;49.882;10.920;2023-02-28T13:58:31;9.60;99.90
6740;DHT22;3407;49.882;10.920;2023-02-28T14:08:24;9.50;99.90
6740;DHT22;3407;49.882;10.920;2023-02-28T14:13:41;9.60;99.90
6740;DHT22;3407;49.882;10.920;2023-02-28T14:18:51;10.60;99.90
6740;DHT22;3407;49.882;10.920;2023-02-28T14:39:46;9.60;99.90
6740;DHT22;3407;49.882;10.920;2023-02-28T14:44:42;9.90;99.90
6740;DHT22;3407;49.882;10.920;2023-02-28T14:49:48;9.90;99.90
6740;DHT22;3407;49.882;10.920;2023-02-28T14:54:44;10.50;99.90
6740;DHT22;3407;49.882;10.920;2023-02-28T14:59:40;10.40;99.90
6740;DHT22;3407;49.882;10.920;2023-02-28T15:04:36;10.60;99.90
6740;DHT22;3407;49.882;10.920;2023-02-28T15:09:32;10.40;99.90
6740;DHT22;3407;49.882;10.920;2023-02-28T15:14:28;10.00;99.90
6740;DHT22;3407;49.882;10.920;2023-02-28T15:19:32;9.10;99.90
6740;DHT22;3407;49.882;10.920;2023-02-28T15:24:38;8.70;99.90
6740;DHT22;3407;49.882;10.920;2023-02-28T15:29:43;8.70;99.90
6740;DHT22;3407;49.882;10.920;2023-02-28T15:34:44;8.50;99.90
6740;DHT22;3407;49.882;10.920;2023-02-28T15:39:42;7.60;99.90
6740;DHT22;3407;49.882;10.920;2023-02-28T15:44:39;7.20;99.90
6740;DHT22;3407;49.882;10.920;2023-02-28T15:50:08;6.60;99.90
6740;DHT22;3407;49.882;10.920;2023-02-28T15:55:19;6.30;99.90
6740;DHT22;3407;49.882;10.920;2023-02-28T16:00:19;5.90;99.90
6740;DHT22;3407;49.882;10.920;2023-02-28T16:05:27;5.40;99.90
6740;DHT22;3407;49.882;10.920;2023-02-28T16:10:29;5.20;99.90
6740;DHT22;3407;49.882;10.920;2023-02-28T16:15:27;5.00;99.90
6740;DHT22;3407;49.882;10.920;2023-02-28T16:20:29;4.80;99.90
6740;DHT22;3407;49.882;10.920;2023-02-28T16:25:33;4.70;99.90
6740;DHT22;3407;49.882;10.920;2023-02-28T16:30:29;4.50;99.90
6740;DHT22;3407;49.882;10.920;2023-02-28T16:35:28;4.40;99.90
6740;DHT22;3407;49.882;10.920;2023-02-28T16:40:25;4.20;99.90
6740;DHT22;3407;49.882;10.920;2023-02-28T16:45:24;4.00;99.90
6740;DHT22;3407;49.882;10.920;2023-02-28T16:50:26;3.80;99.90
6740;DHT22;3407;49.882;10.920;2023-02-28T16:55:23;3.70;99.90
6740;DHT22;3407;49.882;10.920;2023-02-28T17:00:19;3.50;99.90
6740;DHT22;3407;49.882;10.920;2023-02-28T17:05:15;3.50;99.90
6740;DHT22;3407;49.882;10.920;2023-02-28T17:10:13;3.30;99.90
6740;DHT22;3407;49.882;10.920;2023-02-28T17:15:11;3.20;99.90
6740;DHT22;3407;49.882;10.920;2023-02-28T17:20:11;3.10;99.90
6740;DHT22;3407;49.882;10.920;2023-02-28T17:25:08;3.00;99.90
6740;DHT22;3407;49.882;10.920;2023-02-28T17:30:14;2.90;99.90
6740;DHT22;3407;49.882;10.920;2023-02-28T17:35:12;2.80;99.90
6740;DHT22;3407;49.882;10.920;2023-02-28T17:40:16;2.70;99.90
6740;DHT22;3407;49.882;10.920;2023-02-28T17:45:13;2.60;99.90
6740;DHT22;3407;49.882;10.920;2023-02-28T17:50:14;2.50;99.90
6740;DHT22;3407;49.882;10.920;2023-02-28T17:55:10;2.50;99.90
6740;DHT22;3407;49.882;10.920;2023-02-28T18:00:07;2.50;99.90
6740;DHT22;3407;49.882;10.920;2023-02-28T18:05:03;2.40;99.90
6740;DHT22;3407;49.882;10.920;2023-02-28T18:09:59;2.30;99.90
6740;DHT22;3407;49.882;10.920;2023-02-28T18:14:55;2.20;99.90
6740;DHT22;3407;49.882;10.920;2023-02-28T18:19:50;2.10;99.90
6740;DHT22;3407;49.882;10.920;2023-02-28T18:24:47;1.90;99.90
6740;DHT22;3407;49.882;10.920;2023-02-28T18:29:43;1.80;1.00
6740;DHT22;3407;49.882;10.920;2023-02-28T18:34:39;1.60;1.00
6740;DHT22;3407;49.882;10.920;2023-02-28T18:39:34;1.50;1.00
6740;DHT22;3407;49.882;10.920;2023-02-28T18:44:30;1.50;1.00
6740;DHT22;3407;49.882;10.920;2023-02-28T18:49:25;1.60;1.00
6740;DHT22;3407;49.882;10.920;2023-02-28T18:54:21;1.60;1.00
6740;DHT22;3407;49.882;10.920;2023-02-28T18:59:16;1.50;1.00
6740;DHT22;3407;49.882;10.920;2023-02-28T19:04:13;1.50;1.00
6740;DHT22;3407;49.882;10.920;2023-02-28T19:09:09;1.40;1.00
6740;DHT22;3407;49.882;10.920;2023-02-28T19:14:05;1.30;99.90
6740;DHT22;3407;49.882;10.920;2023-02-28T19:19:00;1.30;99.90
6740;DHT22;3407;49.882;10.920;2023-02-28T19:23:56;1.20;99.90
6740;DHT22;3407;49.882;10.920;2023-02-28T19:28:51;1.20;99.90
6740;DHT22;3407;49.882;10.920;2023-02-28T19:33:47;1.10;1.00
6740;DHT22;3407;49.882;10.920;2023-02-28T19:38:43;1.00;1.00
6740;DHT22;3407;49.882;10.920;2023-02-28T19:43:39;1.00;1.00
6740;DHT22;3407;49.882;10.920;2023-02-28T19:48:35;0.90;1.00
6740;DHT22;3407;49.882;10.920;2023-02-28T19:53:32;0.80;1.00
6740;DHT22;3407;49.882;10.920;2023-02-28T19:58:27;0.80;36.70
6740;DHT22;3407;49.882;10.920;2023-02-28T20:03:23;0.70;99.90
6740;DHT22;3407;49.882;10.920;2023-02-28T20:08:18;0.70;99.90
6740;DHT22;3407;49.882;10.920;2023-02-28T20:13:14;0.60;99.90
6740;DHT22;3407;49.882;10.920;2023-02-28T20:18:09;0.60;99.90
6740;DHT22;3407;49.882;10.920;2023-02-28T20:23:05;0.60;99.90
6740;DHT22;3407;49.882;10.920;2023-02-28T20:28:00;0.50;1.00
6740;DHT22;3407;49.882;10.920;2023-02-28T20:32:56;0.50;1.00
6740;DHT22;3407;49.882;10.920;2023-02-28T20:37:51;0.40;1.00
6740;DHT22;3407;49.882;10.920;2023-02-28T20:42:47;0.40;18.10
6740;DHT22;3407;49.882;10.920;2023-02-28T20:47:43;0.40;76.10
6740;DHT22;3407;49.882;10.920;2023-02-28T20:52:38;0.30;99.90
6740;DHT22;3407;49.882;10.920;2023-02-28T20:57:34;0.30;99.90
6740;DHT22;3407;49.882;10.920;2023-02-28T21:02:29;0.20;99.90
6740;DHT22;3407;49.882;10.920;2023-02-28T21:07:27;0.30;1.00
6740;DHT22;3407;49.882;10.920;2023-02-28T21:12:23;0.20;1.00
6740;DHT22;3407;49.882;10.920;2023-02-28T21:17:18;0.20;1.00
6740;DHT22;3407;49.882;10.920;2023-02-28T21:22:14;0.20;1.00
6740;DHT22;3407;49.882;10.920;2023-02-28T21:27:10;0.30;1.00
6740;DHT22;3407;49.882;10.920;2023-02-28T21:32:06;0.30;1.00
6740;DHT22;3407;49.882;10.920;2023-02-28T21:37:01;0.20;47.80
6740;DHT22;3407;49.882;10.920;2023-02-28T21:41:58;0.20;99.90
6740;DHT22;3407;49.882;10.920;2023-02-28T21:46:57;0.20;99.90
6740;DHT22;3407;49.882;10.920;2023-02-28T21:51:57;0.20;99.90
6740;DHT22;3407;49.882;10.920;2023-02-28T21:56:54;0.20;99.90
6740;DHT22;3407;49.882;10.920;2023-02-28T22:01:50;0.10;99.90
6740;DHT22;3407;49.882;10.920;2023-02-28T22:06:48;0.10;1.00
6740;DHT22;3407;49.882;10.920;2023-02-28T22:11:43;0.00;1.00
6740;DHT22;3407;49.882;10.920;2023-02-28T22:16:39;0.00;67.20
6740;DHT22;3407;49.882;10.920;2023-02-28T22:21:36;0.00;99.90
6740;DHT22;3407;49.882;10.920;2023-02-28T22:26:32;0.00;99.90
6740;DHT22;3407;49.882;10.920;2023-02-28T22:31:32;-0.10;99.90
6740;DHT22;3407;49.882;10.920;2023-02-28T22:36:28;-0.10;99.90
6740;DHT22;3407;49.882;10.920;2023-02-28T22:41:24;-0.10;99.90
6740;DHT22;3407;49.882;10.920;2023-02-28T22:46:22;-0.10;99.90
6740;DHT22;3407;49.882;10.920;2023-02-28T22:51:20;-0.20;99.90
6740;DHT22;3407;49.882;10.920;2023-02-28T22:56:18;-0.20;1.00
6740;DHT22;3407;49.882;10.920;2023-02-28T23:01:15;-0.30;1.00
6740;DHT22;3407;49.882;10.920;2023-02-28T23:06:18;-0.30;92.20
6740;DHT22;3407;49.882;10.920;2023-02-28T23:11:29;-0.40;99.90
6740;DHT22;3407;49.882;10.920;2023-02-28T23:16:49;-0.50;1.00
6740;DHT22;3407;49.882;10.920;2023-02-28T23:21:45;-0.60;92.30
6740;DHT22;3407;49.882;10.920;2023-02-28T23:26:43;-0.70;1.00
6740;DHT22;3407;49.882;10.920;2023-02-28T23:31:39;-0.80;99.90
6740;DHT22;3407;49.882;10.920;2023-02-28T23:36:34;-0.80;99.90
6740;DHT22;3407;49.882;10.920;2023-02-28T23:41:31;-0.80;1.00
6740;DHT22;3407;49.882;10.920;2023-02-28T23:46:26;-0.80;1.00
6740;DHT22;3407;49.882;10.920;2023-02-28T23:51:22;-0.90;99.90
6740;DHT22;3407;49.882;10.920;2023-02-28T23:56:21;-0.90;99.90
